createdAt,value
2018-03-24T00:00:12.104Z,10.98
2018-03-24T00:01:17.915Z,11.32
2018-03-24T00:02:24.456Z,10.70
2018-03-24T00:03:30.214Z,10.82
2018-03-24T00:04:36.756Z,11.15
2018-03-24T00:05:42.472Z,10.82
2018-03-24T00:06:48.184Z,11.02
2018-03-24T00:07:53.904Z,10.32
2018-03-24T00:08:59.637Z,9.98
2018-03-24T00:10:06.150Z,11.27
2018-03-24T00:11:11.866Z,11.93
2018-03-24T00:12:17.579Z,11.40
2018-03-24T00:13:23.312Z,12.32
2018-03-24T00:14:29.799Z,12.20
2018-03-24T00:15:35.514Z,12.05
2018-03-24T00:16:42.135Z,11.10
2018-03-24T00:17:47.845Z,11.63
2018-03-24T00:18:53.582Z,11.32
2018-03-24T00:19:59.432Z,10.52
2018-03-24T00:21:05.146Z,12.02
2018-03-24T00:22:10.004Z,11.95
2018-03-24T00:23:15.715Z,11.68
2018-03-24T00:24:21.475Z,12.07
2018-03-24T00:25:27.232Z,13.02
2018-03-24T00:26:33.051Z,12.15
2018-03-24T00:27:38.783Z,11.60
2018-03-24T00:28:45.256Z,10.82
2018-03-24T00:29:51.040Z,9.77
2018-03-24T00:30:56.875Z,11.77
2018-03-24T00:32:02.605Z,11.25
2018-03-24T00:33:08.372Z,11.12
2018-03-24T00:34:14.081Z,10.65
2018-03-24T00:35:19.795Z,12.30
2018-03-24T00:36:25.548Z,11.48
2018-03-24T00:37:31.340Z,11.77
2018-03-24T00:38:37.049Z,11.68
2018-03-24T00:39:42.844Z,11.27
2018-03-24T00:40:49.333Z,11.68
2018-03-24T00:41:55.211Z,10.40
2018-03-24T00:43:01.113Z,11.23
2018-03-24T00:44:06.923Z,11.60
2018-03-24T00:45:12.648Z,10.80
2018-03-24T00:46:19.120Z,10.32
2018-03-24T00:47:25.681Z,10.30
2018-03-24T00:48:32.164Z,10.93
2018-03-24T00:49:37.870Z,10.20
2018-03-24T00:50:44.446Z,11.93
2018-03-24T00:51:50.949Z,10.88
2018-03-24T00:52:56.696Z,10.40
2018-03-24T00:54:02.424Z,10.88
2018-03-24T00:55:08.288Z,11.73
2018-03-24T00:56:14.023Z,12.05
2018-03-24T00:57:19.563Z,11.73
2018-03-24T00:58:25.305Z,11.40
2018-03-24T00:59:31.027Z,11.45
2018-03-24T01:00:36.722Z,10.27
2018-03-24T01:01:42.431Z,10.80
2018-03-24T01:02:47.609Z,11.65
2018-03-24T01:03:54.116Z,10.80
2018-03-24T01:05:00.021Z,11.68
2018-03-24T01:06:05.750Z,10.35
2018-03-24T01:07:12.226Z,10.90
2018-03-24T01:08:17.953Z,11.18
2018-03-24T01:09:24.469Z,10.98
2018-03-24T01:10:30.212Z,10.98
2018-03-24T01:11:35.933Z,11.27
2018-03-24T01:12:41.662Z,11.68
2018-03-24T01:13:47.400Z,11.73
2018-03-24T01:14:53.153Z,10.68
2018-03-24T01:15:58.866Z,10.55
2018-03-24T01:17:04.604Z,12.18
2018-03-24T01:18:11.180Z,12.00
2018-03-24T01:19:17.144Z,12.77
2018-03-24T01:20:22.900Z,11.12
2018-03-24T01:21:28.625Z,11.30
2018-03-24T01:22:34.342Z,12.27
2018-03-24T01:23:40.054Z,11.38
2018-03-24T01:24:46.540Z,10.30
2018-03-24T01:25:52.277Z,12.13
2018-03-24T01:26:58.034Z,11.07
2018-03-24T01:28:03.784Z,11.18
2018-03-24T01:29:09.488Z,11.15
2018-03-24T01:30:15.969Z,12.15
2018-03-24T01:31:21.701Z,10.68
2018-03-24T01:32:27.404Z,11.23
2018-03-24T01:33:32.873Z,11.60
2018-03-24T01:34:38.582Z,11.52
2018-03-24T01:35:45.086Z,10.88
2018-03-24T01:36:50.912Z,12.10
2018-03-24T01:37:57.483Z,11.00
2018-03-24T01:39:03.069Z,10.93
2018-03-24T01:40:08.781Z,11.00
2018-03-24T01:41:14.488Z,11.73
2018-03-24T01:42:20.227Z,12.50
2018-03-24T01:43:26.704Z,12.45
2018-03-24T01:44:32.229Z,11.77
2018-03-24T01:45:37.948Z,11.63
2018-03-24T01:46:43.697Z,13.85
2018-03-24T01:47:50.196Z,12.95
2018-03-24T01:48:55.900Z,11.88
2018-03-24T01:50:02.383Z,12.85
2018-03-24T01:51:08.108Z,12.35
2018-03-24T01:52:13.819Z,12.90
2018-03-24T01:53:19.460Z,12.82
2018-03-24T01:54:25.177Z,11.98
2018-03-24T01:55:30.889Z,13.73
2018-03-24T01:56:36.617Z,13.10
2018-03-24T01:57:42.322Z,12.45
2018-03-24T01:58:48.053Z,13.43
2018-03-24T01:59:53.760Z,12.30
2018-03-24T02:00:59.460Z,12.57
2018-03-24T02:02:05.994Z,13.35
2018-03-24T02:03:13.208Z,13.98
2018-03-24T02:04:18.956Z,13.95
2018-03-24T02:05:24.684Z,13.13
2018-03-24T02:06:31.301Z,15.02
2018-03-24T02:07:37.014Z,15.00
2018-03-24T02:08:42.527Z,14.60
2018-03-24T02:09:49.029Z,14.30
2018-03-24T02:10:54.737Z,14.45
2018-03-24T02:12:00.465Z,16.33
2018-03-24T02:13:06.935Z,14.55
2018-03-24T02:14:12.676Z,14.82
2018-03-24T02:15:18.406Z,15.10
2018-03-24T02:16:24.897Z,15.35
2018-03-24T02:17:30.621Z,14.68
2018-03-24T02:18:36.329Z,15.38
2018-03-24T02:19:42.279Z,15.40
2018-03-24T02:20:50.548Z,16.02
2018-03-24T02:21:56.142Z,14.60
2018-03-24T02:23:01.861Z,17.52
2018-03-24T02:24:07.996Z,15.82
2018-03-24T02:25:14.446Z,16.98
2018-03-24T02:26:19.976Z,15.35
2018-03-24T02:27:25.679Z,16.62
2018-03-24T02:28:31.450Z,16.48
2018-03-24T02:29:37.185Z,16.48
2018-03-24T02:30:42.688Z,17.27
2018-03-24T02:31:48.415Z,15.10
2018-03-24T02:32:54.894Z,17.17
2018-03-24T02:34:00.625Z,15.43
2018-03-24T02:35:06.329Z,15.85
2018-03-24T02:36:12.830Z,16.60
2018-03-24T02:37:18.570Z,17.05
2018-03-24T02:38:24.317Z,16.90
2018-03-24T02:39:30.022Z,17.20
2018-03-24T02:40:36.550Z,19.48
2018-03-24T02:41:42.456Z,19.05
2018-03-24T02:42:48.183Z,18.83
2018-03-24T02:43:54.652Z,16.52
2018-03-24T02:45:00.397Z,17.67
2018-03-24T02:46:06.158Z,17.90
2018-03-24T02:47:11.873Z,18.17
2018-03-24T02:48:17.610Z,17.87
2018-03-24T02:49:23.326Z,18.40
2018-03-24T02:50:29.825Z,18.67
2018-03-24T02:51:35.532Z,17.83
2018-03-24T02:52:42.020Z,18.70
2018-03-24T02:53:47.786Z,18.70
2018-03-24T02:54:53.487Z,19.45
2018-03-24T02:55:58.961Z,17.00
2018-03-24T02:57:04.668Z,18.27
2018-03-24T02:58:10.380Z,17.65
2018-03-24T02:59:16.884Z,19.52
2018-03-24T03:00:22.595Z,18.98
2018-03-24T03:01:29.113Z,19.20
2018-03-24T03:02:34.817Z,17.25
2018-03-24T03:03:40.535Z,19.12
2018-03-24T03:04:46.785Z,18.95
2018-03-24T03:05:53.026Z,18.40
2018-03-24T03:06:59.550Z,19.00
2018-03-24T03:08:05.250Z,19.27
2018-03-24T03:09:10.963Z,21.08
2018-03-24T03:10:16.692Z,18.83
2018-03-24T03:11:22.402Z,18.58
2018-03-24T03:12:28.102Z,17.87
2018-03-24T03:13:33.800Z,18.90
2018-03-24T03:14:39.765Z,18.00
2018-03-24T03:15:45.512Z,18.80
2018-03-24T03:16:51.240Z,18.08
2018-03-24T03:17:56.952Z,17.95
2018-03-24T03:19:02.649Z,19.52
2018-03-24T03:20:08.939Z,19.80
2018-03-24T03:21:14.666Z,20.10
2018-03-24T03:22:20.197Z,19.35
2018-03-24T03:23:25.914Z,20.30
2018-03-24T03:24:32.428Z,19.15
2018-03-24T03:25:38.132Z,19.42
2018-03-24T03:26:43.879Z,18.65
2018-03-24T03:27:49.640Z,21.08
2018-03-24T03:28:55.518Z,19.35
2018-03-24T03:30:01.043Z,20.33
2018-03-24T03:31:27.319Z,20.67
2018-03-24T03:32:32.861Z,20.00
2018-03-24T03:33:38.586Z,21.08
2018-03-24T03:34:45.064Z,21.77
2018-03-24T03:35:50.768Z,21.48
2018-03-24T03:36:57.250Z,20.10
2018-03-24T03:38:02.986Z,21.00
2018-03-24T03:39:09.465Z,21.12
2018-03-24T03:40:15.196Z,21.30
2018-03-24T03:41:20.915Z,21.67
2018-03-24T03:42:26.631Z,19.40
2018-03-24T03:43:32.364Z,20.88
2018-03-24T03:44:38.073Z,20.00
2018-03-24T03:45:43.802Z,20.70
2018-03-24T03:46:49.518Z,21.05
2018-03-24T03:47:56.010Z,20.83
2018-03-24T03:49:01.839Z,20.20
2018-03-24T03:50:07.580Z,20.83
2018-03-24T03:51:13.291Z,19.75
2018-03-24T03:52:18.993Z,20.27
2018-03-24T03:53:24.708Z,20.65
2018-03-24T03:54:30.436Z,20.60
2018-03-24T03:55:36.136Z,20.42
2018-03-24T03:56:41.851Z,21.50
2018-03-24T03:57:47.565Z,21.65
2018-03-24T03:58:53.305Z,22.05
2018-03-24T03:59:59.044Z,23.10
2018-03-24T04:01:04.764Z,22.62
2018-03-24T04:02:11.250Z,20.95
2018-03-24T04:03:16.955Z,23.05
2018-03-24T04:04:23.432Z,21.27
2018-03-24T04:05:29.923Z,23.27
2018-03-24T04:06:35.653Z,24.15
2018-03-24T04:07:41.363Z,23.80
2018-03-24T04:08:47.837Z,21.85
2018-03-24T04:09:53.545Z,24.25
2018-03-24T04:10:59.283Z,21.75
2018-03-24T04:12:05.063Z,20.75
2018-03-24T04:13:10.785Z,22.40
2018-03-24T04:14:17.264Z,22.52
2018-03-24T04:15:22.997Z,21.80
2018-03-24T04:16:29.489Z,23.00
2018-03-24T04:17:35.198Z,23.15
2018-03-24T04:18:40.902Z,21.85
2018-03-24T04:19:46.424Z,23.95
2018-03-24T04:20:52.264Z,23.02
2018-03-24T04:21:57.991Z,24.55
2018-03-24T04:23:03.706Z,22.83
2018-03-24T04:24:09.413Z,24.70
2018-03-24T04:25:15.886Z,22.73
2018-03-24T04:26:22.369Z,22.60
2018-03-24T04:27:28.145Z,23.17
2018-03-24T04:28:33.855Z,21.60
2018-03-24T04:29:39.560Z,22.85
2018-03-24T04:30:46.040Z,23.67
2018-03-24T04:31:51.752Z,23.12
2018-03-24T04:32:57.487Z,22.37
2018-03-24T04:34:03.198Z,22.13
2018-03-24T04:35:08.897Z,22.87
2018-03-24T04:36:15.362Z,23.23
2018-03-24T04:37:21.069Z,21.90
2018-03-24T04:38:26.795Z,21.83
2018-03-24T04:39:32.538Z,22.92
2018-03-24T04:40:38.236Z,21.12
2018-03-24T04:41:44.032Z,22.27
2018-03-24T04:42:50.493Z,22.48
2018-03-24T04:43:57.729Z,22.05
2018-03-24T04:45:03.520Z,24.42
2018-03-24T04:46:09.377Z,21.77
2018-03-24T04:47:15.848Z,23.55
2018-03-24T04:48:21.562Z,21.67
2018-03-24T04:49:28.088Z,22.05
2018-03-24T04:50:35.989Z,22.33
2018-03-24T04:51:41.692Z,23.35
2018-03-24T04:52:47.519Z,21.77
2018-03-24T04:53:53.989Z,21.80
2018-03-24T04:54:59.805Z,21.15
2018-03-24T04:56:05.537Z,22.20
2018-03-24T04:57:12.001Z,24.80
2018-03-24T04:58:18.471Z,24.08
2018-03-24T04:59:24.178Z,22.80
2018-03-24T05:00:29.901Z,24.63
2018-03-24T05:01:35.592Z,22.83
2018-03-24T05:02:41.302Z,23.83
2018-03-24T05:03:48.511Z,23.30
2018-03-24T05:04:54.430Z,23.17
2018-03-24T05:06:00.925Z,22.27
2018-03-24T05:07:06.626Z,23.25
2018-03-24T05:08:13.112Z,22.05
2018-03-24T05:09:18.858Z,24.30
2018-03-24T05:10:24.568Z,22.77
2018-03-24T05:11:30.313Z,24.30
2018-03-24T05:12:36.014Z,22.80
2018-03-24T05:13:41.778Z,23.23
2018-03-24T05:14:47.479Z,25.08
2018-03-24T05:15:53.187Z,23.83
2018-03-24T05:16:59.496Z,23.30
2018-03-24T05:18:05.221Z,23.30
2018-03-24T05:19:10.949Z,22.87
2018-03-24T05:20:16.652Z,21.85
2018-03-24T05:21:23.132Z,23.75
2018-03-24T05:22:29.616Z,24.30
2018-03-24T05:23:35.334Z,23.75
2018-03-24T05:24:41.048Z,23.85
2018-03-24T05:25:46.809Z,24.10
2018-03-24T05:26:53.288Z,23.77
2018-03-24T05:27:59.036Z,23.83
2018-03-24T05:29:04.740Z,23.40
2018-03-24T05:30:11.209Z,23.65
2018-03-24T05:31:16.907Z,24.15
2018-03-24T05:32:22.633Z,23.38
2018-03-24T05:33:28.378Z,26.00
2018-03-24T05:34:34.086Z,23.87
2018-03-24T05:35:39.785Z,23.50
2018-03-24T05:36:45.485Z,23.55
2018-03-24T05:37:51.213Z,23.10
2018-03-24T05:38:57.008Z,24.70
2018-03-24T05:40:02.720Z,24.15
2018-03-24T05:41:08.438Z,26.23
2018-03-24T05:42:14.148Z,23.70
2018-03-24T05:43:20.625Z,24.10
2018-03-24T05:44:26.359Z,23.58
2018-03-24T05:45:32.073Z,22.37
2018-03-24T05:46:38.562Z,21.65
2018-03-24T05:47:44.285Z,23.35
2018-03-24T05:48:50.783Z,23.80
2018-03-24T05:49:56.539Z,25.35
2018-03-24T05:51:02.240Z,23.60
2018-03-24T05:52:07.949Z,24.42
2018-03-24T05:53:13.649Z,24.55
2018-03-24T05:54:19.352Z,25.70
2018-03-24T05:55:25.085Z,23.30
2018-03-24T05:56:31.548Z,24.10
2018-03-24T05:57:38.024Z,23.92
2018-03-24T05:58:43.737Z,23.17
2018-03-24T05:59:50.026Z,23.98
2018-03-24T06:00:55.761Z,25.40
2018-03-24T06:02:01.462Z,24.33
2018-03-24T06:03:07.175Z,24.67
2018-03-24T06:04:12.893Z,23.33
2018-03-24T06:05:18.597Z,24.08
2018-03-24T06:06:25.088Z,22.13
2018-03-24T06:07:30.793Z,23.45
2018-03-24T06:08:37.265Z,24.55
2018-03-24T06:09:43.009Z,22.58
2018-03-24T06:10:48.721Z,21.98
2018-03-24T06:11:54.454Z,23.33
2018-03-24T06:13:00.203Z,22.50
2018-03-24T06:14:05.572Z,24.23
2018-03-24T06:15:11.288Z,23.73
2018-03-24T06:16:17.836Z,22.95
2018-03-24T06:17:24.369Z,23.70
2018-03-24T06:18:30.077Z,21.92
2018-03-24T06:19:35.793Z,23.00
2018-03-24T06:20:42.265Z,21.45
2018-03-24T06:21:47.976Z,23.33
2018-03-24T06:22:53.734Z,23.48
2018-03-24T06:24:00.214Z,21.40
2018-03-24T06:25:05.931Z,22.10
2018-03-24T06:26:12.536Z,22.40
2018-03-24T06:27:18.264Z,23.17
2018-03-24T06:28:24.017Z,23.95
2018-03-24T06:29:29.835Z,24.63
2018-03-24T06:30:35.348Z,23.35
2018-03-24T06:31:44.998Z,24.10
2018-03-24T06:32:50.566Z,23.23
2018-03-24T06:33:56.303Z,25.62
2018-03-24T06:35:01.833Z,24.67
2018-03-24T06:36:19.104Z,24.40
2018-03-24T06:37:25.617Z,24.12
2018-03-24T06:38:31.333Z,24.12
2018-03-24T06:39:37.064Z,22.67
2018-03-24T06:40:42.775Z,24.25
2018-03-24T06:41:49.489Z,24.83
2018-03-24T06:42:55.195Z,23.92
2018-03-24T06:44:01.674Z,24.60
2018-03-24T06:45:07.389Z,23.60
2018-03-24T06:46:13.941Z,22.67
2018-03-24T06:47:19.648Z,24.30
2018-03-24T06:48:25.456Z,23.42
2018-03-24T06:49:31.925Z,24.65
2018-03-24T06:50:37.659Z,24.00
2018-03-24T06:51:43.359Z,23.85
2018-03-24T06:52:49.091Z,22.75
2018-03-24T06:53:54.832Z,21.95
2018-03-24T06:55:00.543Z,22.20
2018-03-24T06:56:05.938Z,23.48
2018-03-24T06:57:12.412Z,23.40
2018-03-24T06:58:18.156Z,23.48
2018-03-24T06:59:23.870Z,22.05
2018-03-24T07:00:30.041Z,23.55
2018-03-24T07:01:35.768Z,24.12
2018-03-24T07:02:42.334Z,24.50
2018-03-24T07:03:48.904Z,24.10
2018-03-24T07:04:55.363Z,23.92
2018-03-24T07:06:00.894Z,23.10
2018-03-24T07:07:07.402Z,22.48
2018-03-24T07:08:13.128Z,22.83
2018-03-24T07:09:19.057Z,24.67
2018-03-24T07:10:24.777Z,23.52
2018-03-24T07:11:31.252Z,25.12
2018-03-24T07:12:37.088Z,22.70
2018-03-24T07:13:42.796Z,24.67
2018-03-24T07:14:49.276Z,23.73
2018-03-24T07:15:55.015Z,22.87
2018-03-24T07:17:01.484Z,23.67
2018-03-24T07:18:07.216Z,23.80
2018-03-24T07:19:12.961Z,23.98
2018-03-24T07:20:18.702Z,24.63
2018-03-24T07:21:24.421Z,24.25
2018-03-24T07:22:30.908Z,24.50
2018-03-24T07:23:36.640Z,22.50
2018-03-24T07:24:43.110Z,23.42
2018-03-24T07:25:49.021Z,23.95
2018-03-24T07:26:54.823Z,24.02
2018-03-24T07:28:00.533Z,22.62
2018-03-24T07:29:06.265Z,23.02
2018-03-24T07:30:11.677Z,25.75
2018-03-24T07:31:18.162Z,24.23
2018-03-24T07:32:23.899Z,24.55
2018-03-24T07:33:30.422Z,23.50
2018-03-24T07:34:36.180Z,24.17
2018-03-24T07:35:42.864Z,24.05
2018-03-24T07:36:48.716Z,24.10
2018-03-24T07:37:54.565Z,23.50
2018-03-24T07:39:01.392Z,23.15
2018-03-24T07:40:07.985Z,24.30
2018-03-24T07:41:13.804Z,25.90
2018-03-24T07:42:20.364Z,23.58
2018-03-24T07:43:27.157Z,24.55
2018-03-24T07:44:32.918Z,27.23
2018-03-24T07:45:38.672Z,24.83
2018-03-24T07:46:44.218Z,24.42
2018-03-24T07:47:50.009Z,25.00
2018-03-24T07:48:56.732Z,24.40
2018-03-24T07:50:03.344Z,24.87
2018-03-24T07:51:09.369Z,23.83
2018-03-24T07:52:15.877Z,23.08
2018-03-24T07:53:21.593Z,24.30
2018-03-24T07:54:27.317Z,24.80
2018-03-24T07:55:33.812Z,22.65
2018-03-24T07:56:39.548Z,24.33
2018-03-24T07:57:45.276Z,22.52
2018-03-24T07:58:51.022Z,23.70
2018-03-24T07:59:56.738Z,23.52
2018-03-24T08:01:03.038Z,23.58
2018-03-24T08:02:08.803Z,24.23
2018-03-24T08:03:14.526Z,23.60
2018-03-24T08:04:20.334Z,23.10
2018-03-24T08:05:26.055Z,24.20
2018-03-24T08:06:32.541Z,22.73
2018-03-24T08:07:38.276Z,23.55
2018-03-24T08:08:44.005Z,25.00
2018-03-24T08:09:50.557Z,22.27
2018-03-24T08:10:57.042Z,23.83
2018-03-24T08:12:04.030Z,21.73
2018-03-24T08:13:09.825Z,23.25
2018-03-24T08:14:16.478Z,25.55
2018-03-24T08:15:22.965Z,23.90
2018-03-24T08:16:28.723Z,24.55
2018-03-24T08:17:34.429Z,24.95
2018-03-24T08:18:40.937Z,23.05
2018-03-24T08:19:46.649Z,24.23
2018-03-24T08:20:52.365Z,24.35
2018-03-24T08:21:58.853Z,24.90
2018-03-24T08:23:04.521Z,23.15
2018-03-24T08:24:10.311Z,24.95
2018-03-24T08:25:16.846Z,23.73
2018-03-24T08:26:22.568Z,24.40
2018-03-24T08:27:28.304Z,24.17
2018-03-24T08:28:34.034Z,24.83
2018-03-24T08:29:39.789Z,24.10
2018-03-24T08:30:45.516Z,23.35
2018-03-24T08:31:50.968Z,24.50
2018-03-24T08:32:56.682Z,24.05
2018-03-24T08:34:02.401Z,25.52
2018-03-24T08:35:07.816Z,24.10
2018-03-24T08:36:14.321Z,23.77
2018-03-24T08:37:20.045Z,22.65
2018-03-24T08:38:27.045Z,21.70
2018-03-24T08:39:33.669Z,23.80
2018-03-24T08:40:39.417Z,22.83
2018-03-24T08:41:45.133Z,25.05
2018-03-24T08:42:51.657Z,22.25
2018-03-24T08:43:57.373Z,24.80
2018-03-24T08:45:02.857Z,24.48
2018-03-24T08:46:08.885Z,23.87
2018-03-24T08:47:14.613Z,23.35
2018-03-24T08:48:20.436Z,22.55
2018-03-24T08:49:26.220Z,21.95
2018-03-24T08:50:31.976Z,21.48
2018-03-24T08:51:38.498Z,20.35
2018-03-24T08:52:44.212Z,21.35
2018-03-24T08:53:49.966Z,22.08
2018-03-24T08:54:55.699Z,22.92
2018-03-24T08:56:01.428Z,23.05
2018-03-24T08:57:07.177Z,22.60
2018-03-24T08:58:12.903Z,22.10
2018-03-24T08:59:18.630Z,22.05
2018-03-24T09:00:25.118Z,22.10
2018-03-24T09:01:30.851Z,21.40
2018-03-24T09:02:36.597Z,22.55
2018-03-24T09:03:42.313Z,23.10
2018-03-24T09:04:48.807Z,23.80
2018-03-24T09:05:54.539Z,23.98
2018-03-24T09:07:00.318Z,22.45
2018-03-24T09:08:05.830Z,23.08
2018-03-24T09:09:12.341Z,22.98
2018-03-24T09:10:18.832Z,22.83
2018-03-24T09:11:24.562Z,22.87
2018-03-24T09:12:31.057Z,21.95
2018-03-24T09:13:36.812Z,20.95
2018-03-24T09:14:42.571Z,22.87
2018-03-24T09:15:48.360Z,21.65
2018-03-24T09:16:54.076Z,22.37
2018-03-24T09:18:00.163Z,22.60
2018-03-24T09:19:05.909Z,22.80
2018-03-24T09:20:11.631Z,22.30
2018-03-24T09:21:17.420Z,21.67
2018-03-24T09:22:23.136Z,22.05
2018-03-24T09:23:28.875Z,21.70
2018-03-24T09:24:34.678Z,22.35
2018-03-24T09:25:41.173Z,22.85
2018-03-24T09:26:46.928Z,22.65
2018-03-24T09:27:52.648Z,24.05
2018-03-24T09:28:58.367Z,23.38
2018-03-24T09:30:04.125Z,23.15
2018-03-24T09:31:10.655Z,24.20
2018-03-24T09:32:17.164Z,23.48
2018-03-24T09:33:22.899Z,23.73
2018-03-24T09:34:28.640Z,22.50
2018-03-24T09:35:34.389Z,21.77
2018-03-24T09:36:40.111Z,21.12
2018-03-24T09:37:45.829Z,23.50
2018-03-24T09:38:51.549Z,22.55
2018-03-24T09:39:57.277Z,21.83
2018-03-24T09:41:02.685Z,20.25
2018-03-24T09:42:08.418Z,21.80
2018-03-24T09:43:14.133Z,21.80
2018-03-24T09:44:19.856Z,22.30
2018-03-24T09:45:26.637Z,19.70
2018-03-24T09:46:32.365Z,20.98
2018-03-24T09:47:38.857Z,23.92
2018-03-24T09:48:44.564Z,20.92
2018-03-24T09:49:51.041Z,19.45
2018-03-24T09:50:56.754Z,19.30
2018-03-24T09:52:03.265Z,21.23
2018-03-24T09:53:08.980Z,21.23
2018-03-24T09:54:14.701Z,18.87
2018-03-24T09:55:21.194Z,18.80
2018-03-24T09:56:26.904Z,18.58
2018-03-24T09:57:32.649Z,18.20
2018-03-24T09:58:39.123Z,16.73
2018-03-24T09:59:44.856Z,16.17
2018-03-24T10:00:50.576Z,14.43
2018-03-24T10:01:57.061Z,16.58
2018-03-24T10:03:02.798Z,15.05
2018-03-24T10:04:08.545Z,16.10
2018-03-24T10:05:14.313Z,16.20
2018-03-24T10:06:20.222Z,15.35
2018-03-24T10:07:25.745Z,15.02
2018-03-24T10:08:31.819Z,14.45
2018-03-24T10:09:37.353Z,15.43
2018-03-24T10:10:43.395Z,14.85
2018-03-24T10:11:49.114Z,15.50
2018-03-24T10:12:55.400Z,12.80
2018-03-24T10:14:01.149Z,12.50
2018-03-24T10:15:06.880Z,13.57
2018-03-24T10:16:12.604Z,12.40
2018-03-24T10:17:18.318Z,11.75
2018-03-24T10:18:24.028Z,9.55
2018-03-24T10:19:29.761Z,10.00
2018-03-24T10:23:08.780Z,7.28
2018-03-24T10:24:27.723Z,9.35
2018-03-24T10:25:33.473Z,11.60
2018-03-24T10:26:39.200Z,11.70
2018-03-24T10:27:45.247Z,14.07
2018-03-24T10:28:50.892Z,13.35
2018-03-24T10:29:56.808Z,12.27
2018-03-24T10:31:03.137Z,11.20
2018-03-24T10:32:08.870Z,11.52
2018-03-24T10:33:14.589Z,11.12
2018-03-24T10:34:20.617Z,12.30
2018-03-24T10:35:26.785Z,12.55
2018-03-24T10:36:32.729Z,11.60
2018-03-24T10:37:43.914Z,10.32
2018-03-24T10:38:49.632Z,12.52
2018-03-24T10:39:55.395Z,12.25
2018-03-24T10:41:06.153Z,13.02
2018-03-24T10:42:11.913Z,12.55
2018-03-24T10:43:23.077Z,11.93
2018-03-24T10:44:28.796Z,12.77
2018-03-24T10:45:34.512Z,12.55
2018-03-24T10:46:40.247Z,12.52
2018-03-24T10:47:46.003Z,11.90
2018-03-24T10:48:51.748Z,12.05
2018-03-24T10:49:57.488Z,10.45
2018-03-24T10:51:03.204Z,11.32
2018-03-24T10:52:08.961Z,11.32
2018-03-24T10:53:14.709Z,10.70
2018-03-24T10:54:20.492Z,12.32
2018-03-24T10:55:27.021Z,12.48
2018-03-24T10:56:33.707Z,12.25
2018-03-24T10:57:39.460Z,11.60
2018-03-24T10:58:45.206Z,10.75
2018-03-24T10:59:52.198Z,11.45
2018-03-24T11:01:04.180Z,13.55
2018-03-24T11:02:10.983Z,11.98
2018-03-24T11:03:16.735Z,10.40
2018-03-24T11:04:22.517Z,8.85
2018-03-24T11:05:29.602Z,10.23
2018-03-24T11:06:36.122Z,10.93
2018-03-24T11:07:42.334Z,10.30
2018-03-24T11:08:49.605Z,11.82
2018-03-24T11:09:55.441Z,11.75
2018-03-24T11:11:01.992Z,11.40
2018-03-24T11:12:08.482Z,11.02
2018-03-24T11:13:14.214Z,11.12
2018-03-24T11:14:21.018Z,9.40
2018-03-24T11:15:26.753Z,8.23
2018-03-24T11:16:32.488Z,8.82
2018-03-24T11:17:38.217Z,9.10
2018-03-24T11:18:43.941Z,10.60
2018-03-24T11:19:50.454Z,8.75
2018-03-24T11:20:56.392Z,8.75
2018-03-24T11:22:02.203Z,8.25
2018-03-24T11:23:07.999Z,10.23
2018-03-24T11:24:13.796Z,10.10
2018-03-24T11:25:19.501Z,7.62
2018-03-24T11:26:26.032Z,8.18
2018-03-24T11:27:31.743Z,7.15
2018-03-24T11:28:37.314Z,9.40
2018-03-24T11:29:43.067Z,8.02
2018-03-24T11:30:48.957Z,8.25
2018-03-24T11:31:54.838Z,6.90
2018-03-24T11:33:00.581Z,7.10
2018-03-24T11:34:05.970Z,8.27
2018-03-24T11:35:13.276Z,7.47
2018-03-24T11:36:19.189Z,7.37
2018-03-24T11:37:25.081Z,7.00
2018-03-24T11:38:30.819Z,7.68
2018-03-24T11:39:36.613Z,7.12
2018-03-24T11:40:42.506Z,7.68
2018-03-24T11:41:49.129Z,7.87
2018-03-24T11:42:54.949Z,7.43
2018-03-24T11:44:01.420Z,7.37
2018-03-24T11:45:07.130Z,7.43
2018-03-24T11:46:12.839Z,8.80
2018-03-24T11:47:18.557Z,8.90
2018-03-24T11:48:25.096Z,7.40
2018-03-24T11:49:30.926Z,7.50
2018-03-24T11:50:37.404Z,8.05
2018-03-24T11:51:43.453Z,7.62
2018-03-24T11:52:49.204Z,9.52
2018-03-24T11:53:54.935Z,9.60
2018-03-24T11:55:00.695Z,8.75
2018-03-24T11:56:06.415Z,6.70
2018-03-24T11:57:12.161Z,7.12
2018-03-24T11:58:17.877Z,6.95
2018-03-24T11:59:23.622Z,6.78
2018-03-24T12:00:30.002Z,6.70
2018-03-24T12:01:35.840Z,8.48
2018-03-24T12:02:41.769Z,7.43
2018-03-24T12:03:48.311Z,7.70
2018-03-24T12:04:54.154Z,6.57
2018-03-24T12:05:59.985Z,6.45
2018-03-24T12:07:05.692Z,5.22
2018-03-24T12:08:11.434Z,6.75
2018-03-24T12:09:17.138Z,5.85
2018-03-24T12:10:23.674Z,6.37
2018-03-24T12:11:29.375Z,7.12
2018-03-24T12:12:35.082Z,6.55
2018-03-24T12:13:41.565Z,7.00
2018-03-24T12:14:47.256Z,7.07
2018-03-24T12:15:53.041Z,7.35
2018-03-24T12:16:58.465Z,7.40
2018-03-24T12:18:04.177Z,6.50
2018-03-24T12:19:09.912Z,7.65
2018-03-24T12:20:15.616Z,6.80
2018-03-24T12:21:21.358Z,7.40
2018-03-24T12:22:27.092Z,7.57
2018-03-24T12:23:32.820Z,7.70
2018-03-24T12:24:38.531Z,8.25
2018-03-24T12:25:44.303Z,7.80
2018-03-24T12:26:50.033Z,7.35
2018-03-24T12:27:55.753Z,7.47
2018-03-24T12:29:02.288Z,7.43
2018-03-24T12:30:08.583Z,8.15
2018-03-24T12:31:15.154Z,7.20
2018-03-24T12:32:21.047Z,7.18
2018-03-24T12:33:26.760Z,8.48
2018-03-24T12:34:32.680Z,7.55
2018-03-24T12:35:38.407Z,7.43
2018-03-24T12:36:44.732Z,9.32
2018-03-24T12:37:50.487Z,9.02
2018-03-24T12:38:56.672Z,7.70
2018-03-24T12:40:02.491Z,9.07
2018-03-24T12:41:08.515Z,7.50
2018-03-24T12:42:14.331Z,8.98
2018-03-24T12:43:20.318Z,8.27
2018-03-24T12:44:26.275Z,6.68
2018-03-24T12:45:32.017Z,8.02
2018-03-24T12:46:38.492Z,9.38
2018-03-24T12:47:44.234Z,7.78
2018-03-24T12:48:50.752Z,6.75
2018-03-24T12:49:56.473Z,8.05
2018-03-24T12:51:02.186Z,8.20
2018-03-24T12:52:07.915Z,7.75
2018-03-24T12:53:14.378Z,8.90
2018-03-24T12:54:20.120Z,7.30
2018-03-24T12:55:25.842Z,7.93
2018-03-24T12:56:32.361Z,8.13
2018-03-24T12:57:38.114Z,8.95
2018-03-24T12:58:43.871Z,8.45
2018-03-24T12:59:55.423Z,8.13
2018-03-24T13:01:01.155Z,7.15
2018-03-24T13:02:06.860Z,8.40
2018-03-24T13:03:12.586Z,8.02
2018-03-24T13:04:19.084Z,7.60
2018-03-24T13:05:24.882Z,7.70
2018-03-24T13:06:30.607Z,7.68
2018-03-24T13:07:37.171Z,8.65
2018-03-24T13:08:42.903Z,8.45
2018-03-24T13:09:49.385Z,7.53
2018-03-24T13:10:55.356Z,8.13
2018-03-24T13:12:01.145Z,8.15
2018-03-24T13:13:07.100Z,8.48
2018-03-24T13:14:12.832Z,7.87
2018-03-24T13:15:18.552Z,8.90
2018-03-24T13:16:24.304Z,7.30
2018-03-24T13:17:30.368Z,7.87
2018-03-24T13:18:36.849Z,7.22
2018-03-24T13:19:42.563Z,9.07
2018-03-24T13:20:49.136Z,7.00
2018-03-24T13:21:55.727Z,8.52
2018-03-24T13:23:01.441Z,8.00
2018-03-24T13:24:10.980Z,8.05
2018-03-24T13:25:16.928Z,7.85
2018-03-24T13:26:22.977Z,8.50
2018-03-24T13:27:29.074Z,8.65
2018-03-24T13:28:35.623Z,7.70
2018-03-24T13:29:41.529Z,9.00
2018-03-24T13:30:47.364Z,8.15
2018-03-24T13:31:54.017Z,8.50
2018-03-24T13:33:00.542Z,9.00
2018-03-24T13:34:05.977Z,8.13
2018-03-24T13:35:11.693Z,9.45
2018-03-24T13:36:17.499Z,8.45
2018-03-24T13:37:23.185Z,9.45
2018-03-24T13:38:28.774Z,9.37
2018-03-24T13:39:35.265Z,8.88
2018-03-24T13:40:41.024Z,9.70
2018-03-24T13:41:47.557Z,9.38
2018-03-24T13:42:53.288Z,8.45
2018-03-24T13:43:59.853Z,9.50
2018-03-24T13:45:05.493Z,10.27
2018-03-24T13:46:11.220Z,9.45
2018-03-24T13:47:17.705Z,8.70
2018-03-24T13:48:23.430Z,9.70
2018-03-24T13:49:29.153Z,8.90
2018-03-24T13:50:37.166Z,10.20
2018-03-24T13:51:43.001Z,9.48
2018-03-24T13:52:48.856Z,10.07
2018-03-24T13:53:54.831Z,9.30
2018-03-24T13:55:00.590Z,9.82
2018-03-24T13:56:06.447Z,10.38
2018-03-24T13:57:13.806Z,11.52
2018-03-24T13:58:19.577Z,10.68
2018-03-24T13:59:26.078Z,10.88
2018-03-24T14:00:32.069Z,10.02
2018-03-24T14:01:37.812Z,11.60
2018-03-24T14:02:43.214Z,10.88
2018-03-24T14:03:49.577Z,10.83
2018-03-24T14:04:55.491Z,11.07
2018-03-24T14:06:01.308Z,11.50
2018-03-24T14:07:07.801Z,11.38
2018-03-24T14:08:13.545Z,11.77
2018-03-24T14:09:19.274Z,11.88
2018-03-24T14:10:24.686Z,11.57
2018-03-24T14:11:31.237Z,12.02
2018-03-24T14:12:36.948Z,11.98
2018-03-24T14:13:42.700Z,12.23
2018-03-24T14:14:49.225Z,11.85
2018-03-24T14:15:55.670Z,12.18
2018-03-24T14:17:02.556Z,13.13
2018-03-24T14:18:08.397Z,13.60